createdAt,value
2022-09-28T00:03:13.321Z,7.28
2022-09-28T00:08:18.526Z,6.35
2022-09-28T00:13:22.037Z,7.50
2022-09-28T00:18:25.580Z,7.10
2022-09-28T00:23:31.656Z,7.38
2022-09-28T00:28:35.190Z,6.88
2022-09-28T00:33:38.718Z,8.18
2022-09-28T00:38:43.957Z,6.15
2022-09-28T00:43:47.483Z,6.22
2022-09-28T00:48:56.982Z,6.45
2022-09-28T00:54:04.309Z,5.97
2022-09-28T00:59:10.344Z,6.50
2022-09-28T01:04:14.244Z,8.48
2022-09-28T01:09:20.197Z,6.60
2022-09-28T01:14:25.267Z,6.88
2022-09-28T01:24:46.351Z,7.25
2022-09-28T01:29:57.638Z,6.40
2022-09-28T01:35:06.309Z,7.07
2022-09-28T01:40:12.676Z,7.30
2022-09-28T01:45:24.662Z,6.57
2022-09-28T01:50:31.050Z,6.35
2022-09-28T01:55:39.548Z,8.30
2022-09-28T02:00:50.154Z,6.38
2022-09-28T02:05:58.245Z,9.43
2022-09-28T02:11:05.673Z,8.05
2022-09-28T02:16:18.621Z,8.65
2022-09-28T02:21:27.505Z,7.75
2022-09-28T02:26:35.940Z,7.30
2022-09-28T02:31:41.293Z,9.18
2022-09-28T02:41:56.371Z,8.48
2022-09-28T02:47:08.521Z,6.00
2022-09-28T02:52:37.580Z,6.50
2022-09-28T02:57:53.923Z,7.15
2022-09-28T03:03:06.109Z,9.95
2022-09-28T03:08:18.080Z,7.43
2022-09-28T03:13:22.008Z,7.32
2022-09-28T03:18:27.288Z,7.03
2022-09-28T03:23:30.879Z,7.50
2022-09-28T03:28:34.444Z,7.43
2022-09-28T03:33:39.639Z,6.82
2022-09-28T03:38:43.194Z,6.07
2022-09-28T03:43:46.772Z,6.85
2022-09-28T03:48:51.949Z,6.97
2022-09-28T03:53:55.492Z,6.63
2022-09-28T03:58:59.059Z,6.15
2022-09-28T04:04:04.337Z,5.75
2022-09-28T04:09:07.895Z,7.25
2022-09-28T04:14:11.449Z,9.10
2022-09-28T04:19:16.661Z,6.18
2022-09-28T04:24:20.400Z,8.25
2022-09-28T04:29:23.970Z,6.35
2022-09-28T04:34:33.156Z,6.07
2022-09-28T04:39:38.888Z,7.90
2022-09-28T04:44:42.446Z,6.45
2022-09-28T04:49:47.644Z,6.90
2022-09-28T04:54:51.170Z,6.88
2022-09-28T04:59:54.699Z,6.55
2022-09-28T05:05:00.034Z,6.18
2022-09-28T05:10:03.589Z,7.70
2022-09-28T05:15:07.891Z,6.55
2022-09-28T05:20:13.194Z,7.80
2022-09-28T05:25:16.861Z,6.32
2022-09-28T05:30:20.383Z,5.72
2022-09-28T05:35:25.585Z,7.45
2022-09-28T05:40:29.210Z,8.43
2022-09-28T05:45:32.903Z,7.53
2022-09-28T05:50:38.138Z,5.82
2022-09-28T05:55:41.663Z,5.70
2022-09-28T06:00:45.379Z,7.10
2022-09-28T06:05:50.982Z,7.20
2022-09-28T06:10:54.531Z,6.47
2022-09-28T06:15:58.040Z,8.00
2022-09-28T06:21:04.293Z,8.00
2022-09-28T06:26:08.030Z,6.97
2022-09-28T06:31:11.857Z,5.60
2022-09-28T06:36:18.041Z,5.97
2022-09-28T06:41:21.590Z,6.20
2022-09-28T06:46:25.327Z,6.28
2022-09-28T06:51:30.514Z,5.40
2022-09-28T06:56:34.059Z,9.47
2022-09-28T07:01:37.634Z,5.07
2022-09-28T07:06:48.834Z,5.25
2022-09-28T07:11:52.361Z,5.55
2022-09-28T07:17:12.294Z,7.30
2022-09-28T07:22:20.198Z,7.65
2022-09-28T07:27:29.017Z,5.93
2022-09-28T07:32:32.694Z,6.78
2022-09-28T07:37:37.890Z,7.80
2022-09-28T07:42:45.497Z,6.80
2022-09-28T07:47:49.193Z,6.32
2022-09-28T07:52:56.649Z,7.13
2022-09-28T07:58:00.740Z,6.00
2022-09-28T08:03:04.808Z,6.90
2022-09-28T08:08:10.254Z,7.47
2022-09-28T08:13:13.794Z,6.05
2022-09-28T08:18:17.365Z,6.88
2022-09-28T08:23:22.595Z,7.40
2022-09-28T08:28:26.300Z,6.27
2022-09-28T08:33:30.153Z,7.57
2022-09-28T08:38:35.522Z,7.03
2022-09-28T08:43:57.571Z,6.97
2022-09-28T08:49:24.079Z,7.20
2022-09-28T08:54:37.613Z,9.77
2022-09-28T08:59:49.999Z,6.35
2022-09-28T09:04:54.904Z,7.30
2022-09-28T09:10:07.724Z,5.97
2022-09-28T09:15:34.701Z,7.72
2022-09-28T09:20:48.058Z,6.70
2022-09-28T09:25:56.634Z,8.20
2022-09-28T09:31:12.705Z,8.40
2022-09-28T09:36:31.654Z,6.93
2022-09-28T09:41:55.088Z,6.35
2022-09-28T09:47:02.338Z,7.00
2022-09-28T09:52:12.054Z,6.68
2022-09-28T09:57:21.172Z,7.75
2022-09-28T10:02:27.660Z,8.20
2022-09-28T10:07:40.353Z,8.90
2022-09-28T10:12:49.825Z,7.17
2022-09-28T10:17:54.502Z,9.00
2022-09-28T10:22:59.827Z,7.60
2022-09-28T10:28:07.669Z,6.33
2022-09-28T10:33:30.106Z,11.40
2022-09-28T10:38:34.876Z,10.10
2022-09-28T10:43:50.692Z,7.10
2022-09-28T10:49:01.836Z,8.23
2022-09-28T10:54:05.584Z,7.57
2022-09-28T10:59:24.990Z,6.20
2022-09-28T11:04:30.058Z,6.13
2022-09-28T11:09:37.147Z,8.48
2022-09-28T11:14:43.921Z,6.88
2022-09-28T11:19:47.470Z,7.25
2022-09-28T11:24:51.373Z,7.05
2022-09-28T11:29:59.067Z,6.10
2022-09-28T11:35:03.521Z,6.63
2022-09-28T11:40:20.961Z,7.50
2022-09-28T11:45:37.783Z,6.30
2022-09-28T11:50:47.558Z,10.23
2022-09-28T11:55:58.668Z,6.97
2022-09-28T12:01:11.448Z,6.80
2022-09-28T12:06:23.006Z,6.13
2022-09-28T12:11:32.724Z,7.88
2022-09-28T12:17:04.959Z,5.95
2022-09-28T12:22:18.988Z,5.55
2022-09-28T12:27:28.698Z,6.97
2022-09-28T12:32:38.986Z,8.25
2022-09-28T12:38:04.050Z,5.93
2022-09-28T12:43:47.514Z,6.65
2022-09-28T12:50:20.214Z,7.07
2022-09-28T12:54:53.079Z,6.15
2022-09-28T13:00:03.625Z,6.15
2022-09-28T13:05:24.924Z,8.60
2022-09-28T13:10:34.469Z,6.60
2022-09-28T13:15:44.560Z,6.22
2022-09-28T13:21:01.434Z,5.57
2022-09-28T13:26:16.148Z,7.95
2022-09-28T13:31:22.913Z,7.18
2022-09-28T13:36:47.238Z,7.60
2022-09-28T13:41:51.509Z,6.22
2022-09-28T13:47:20.927Z,6.72
2022-09-28T13:52:40.165Z,7.32
2022-09-28T13:57:49.799Z,7.10
2022-09-28T14:03:00.356Z,6.30
2022-09-28T14:08:28.060Z,5.53
2022-09-28T14:13:59.728Z,5.18
2022-09-28T14:19:08.720Z,6.80
2022-09-28T14:24:24.100Z,6.38
2022-09-28T14:29:29.240Z,5.25
2022-09-28T14:34:36.167Z,5.78
2022-09-28T14:39:45.982Z,6.82
2022-09-28T14:45:34.402Z,6.25
2022-09-28T14:50:37.974Z,5.03
2022-09-28T14:55:47.779Z,6.40
2022-09-28T15:01:04.374Z,5.57
2022-09-28T15:06:14.786Z,6.43
2022-09-28T15:11:24.370Z,8.52
2022-09-28T15:16:31.653Z,7.63
2022-09-28T15:21:39.469Z,8.82
2022-09-28T15:26:49.420Z,5.53
2022-09-28T15:31:54.583Z,6.35
2022-09-28T15:36:58.945Z,6.70
2022-09-28T15:42:06.008Z,4.75
2022-09-28T15:47:13.327Z,4.85
2022-09-28T15:52:35.091Z,5.50
2022-09-28T15:57:41.373Z,4.63
2022-09-28T16:03:02.243Z,4.55
2022-09-28T16:08:06.786Z,2.83
2022-09-28T16:13:17.082Z,6.55
2022-09-28T16:18:22.305Z,3.92
2022-09-28T16:23:29.299Z,5.70
2022-09-28T16:28:50.626Z,4.38
2022-09-28T16:33:55.695Z,6.05
2022-09-28T16:38:59.234Z,5.75
2022-09-28T16:44:04.496Z,5.10
2022-09-28T16:49:08.517Z,5.15
2022-09-28T16:54:16.718Z,4.60
2022-09-28T16:59:22.758Z,7.43
2022-09-28T17:04:26.838Z,5.05
2022-09-28T17:09:30.380Z,4.53
2022-09-28T17:14:35.533Z,5.97
2022-09-28T17:19:39.056Z,5.03
2022-09-28T17:24:42.597Z,5.28
2022-09-28T17:29:47.781Z,5.68
2022-09-28T17:40:18.583Z,5.32
2022-09-28T17:45:24.944Z,6.43
2022-09-28T17:50:30.819Z,7.35
2022-09-28T17:55:36.403Z,7.15
2022-09-28T18:00:41.585Z,5.55
2022-09-28T18:05:45.730Z,5.05
2022-09-28T18:10:50.570Z,6.83
2022-09-28T18:15:56.467Z,7.93
2022-09-28T18:21:01.554Z,6.25
2022-09-28T18:31:14.745Z,3.67
2022-09-28T18:36:18.419Z,6.63
2022-09-28T18:41:22.008Z,3.65
2022-09-28T18:46:28.006Z,4.32
2022-09-28T18:51:31.749Z,4.07
2022-09-28T18:56:36.204Z,6.10
2022-09-28T19:01:41.865Z,3.42
2022-09-28T19:06:45.648Z,3.47
2022-09-28T19:11:49.295Z,3.83
2022-09-28T19:16:54.472Z,5.00
2022-09-28T19:21:58.312Z,2.88
2022-09-28T19:27:01.895Z,1.40
2022-09-28T19:32:07.107Z,0.95
2022-09-28T19:37:10.655Z,1.42
2022-09-28T19:42:14.224Z,1.08
2022-09-28T19:47:19.395Z,0.50
2022-09-28T19:52:22.940Z,2.80
2022-09-28T19:57:27.591Z,2.05
2022-09-28T20:07:36.855Z,0.60
2022-09-28T20:12:40.595Z,1.38
2022-09-28T20:17:45.767Z,3.23
2022-09-28T20:22:50.025Z,1.73
2022-09-28T20:27:53.636Z,1.75
2022-09-28T20:32:58.823Z,1.23
2022-09-28T20:38:02.387Z,1.13
2022-09-28T20:43:06.631Z,1.83
2022-09-28T20:48:11.804Z,0.65
2022-09-28T20:53:15.313Z,1.13
2022-09-28T20:58:18.896Z,0.50
2022-09-28T21:03:24.168Z,1.80
2022-09-28T21:08:27.691Z,0.93
2022-09-28T21:13:33.676Z,1.60
2022-09-28T21:18:39.516Z,0.65
2022-09-28T21:23:43.259Z,1.33
2022-09-28T21:28:46.813Z,1.13
2022-09-28T21:33:52.121Z,3.67
2022-09-28T21:38:55.794Z,1.08
2022-09-28T21:43:59.547Z,1.57
2022-09-28T21:49:06.455Z,0.63
2022-09-28T21:54:10.185Z,1.48
2022-09-28T21:59:13.741Z,1.17
2022-09-28T22:04:19.126Z,1.20
2022-09-28T22:09:22.829Z,2.80
2022-09-28T22:14:26.392Z,1.33
2022-09-28T22:19:31.598Z,1.80
2022-09-28T22:24:35.210Z,0.98
2022-09-28T22:29:38.729Z,1.93
2022-09-28T22:34:43.927Z,2.17
2022-09-28T22:39:47.497Z,1.75
2022-09-28T22:44:51.030Z,3.60
2022-09-28T22:49:56.208Z,1.23
2022-09-28T22:54:59.738Z,1.05
2022-09-28T23:00:04.191Z,1.33
2022-09-28T23:10:12.566Z,0.60
2022-09-28T23:15:16.271Z,1.90
2022-09-28T23:20:22.193Z,1.13
2022-09-28T23:25:25.756Z,2.70
2022-09-28T23:30:29.304Z,2.13
2022-09-28T23:35:34.628Z,1.15
2022-09-28T23:40:38.192Z,0.60
2022-09-28T23:45:43.825Z,0.85
2022-09-28T23:50:49.004Z,0.57
2022-09-28T23:55:52.837Z,1.17
